sensor_id;sensor_type;location;lat;lon;timestamp;temperature;humidity
17399;DHT22;8817;48.170;8.592;2023-03-18T00:00:21;15.70;37.30
17399;DHT22;8817;48.170;8.592;2023-03-18T00:02:48;15.80;37.30
17399;DHT22;8817;48.170;8.592;2023-03-18T00:05:15;15.70;37.30
17399;DHT22;8817;48.170;8.592;2023-03-18T00:07:44;15.80;37.90
17399;DHT22;8817;48.170;8.592;2023-03-18T00:10:12;15.80;37.40
17399;DHT22;8817;48.170;8.592;2023-03-18T00:12:40;15.80;37.40
17399;DHT22;8817;48.170;8.592;2023-03-18T00:15:12;15.80;37.40
17399;DHT22;8817;48.170;8.592;2023-03-18T00:17:42;15.80;37.40
17399;DHT22;8817;48.170;8.592;2023-03-18T00:20:11;15.80;37.40
17399;DHT22;8817;48.170;8.592;2023-03-18T00:22:39;15.80;37.40
17399;DHT22;8817;48.170;8.592;2023-03-18T00:25:13;15.80;37.40
17399;DHT22;8817;48.170;8.592;2023-03-18T00:27:40;15.70;37.90
17399;DHT22;8817;48.170;8.592;2023-03-18T00:30:08;15.80;37.30
17399;DHT22;8817;48.170;8.592;2023-03-18T00:32:36;15.80;37.30
17399;DHT22;8817;48.170;8.592;2023-03-18T00:35:04;15.70;37.30
17399;DHT22;8817;48.170;8.592;2023-03-18T00:37:31;15.70;37.30
17399;DHT22;8817;48.170;8.592;2023-03-18T00:40:02;15.70;37.30
17399;DHT22;8817;48.170;8.592;2023-03-18T00:42:32;15.70;37.40
17399;DHT22;8817;48.170;8.592;2023-03-18T00:45:04;15.70;37.30
17399;DHT22;8817;48.170;8.592;2023-03-18T00:47:31;15.70;37.30
17399;DHT22;8817;48.170;8.592;2023-03-18T00:49:59;15.70;37.40
17399;DHT22;8817;48.170;8.592;2023-03-18T00:52:26;15.70;37.40
17399;DHT22;8817;48.170;8.592;2023-03-18T00:54:52;15.70;37.40
17399;DHT22;8817;48.170;8.592;2023-03-18T00:57:20;15.70;37.40
17399;DHT22;8817;48.170;8.592;2023-03-18T00:59:48;15.70;37.40
17399;DHT22;8817;48.170;8.592;2023-03-18T01:02:16;15.60;37.30
17399;DHT22;8817;48.170;8.592;2023-03-18T01:04:42;15.60;37.30
17399;DHT22;8817;48.170;8.592;2023-03-18T01:07:10;15.60;37.30
17399;DHT22;8817;48.170;8.592;2023-03-18T01:09:37;15.60;37.30
17399;DHT22;8817;48.170;8.592;2023-03-18T01:12:06;15.60;37.30
17399;DHT22;8817;48.170;8.592;2023-03-18T01:14:34;15.60;37.30
17399;DHT22;8817;48.170;8.592;2023-03-18T01:17:04;15.60;37.40
17399;DHT22;8817;48.170;8.592;2023-03-18T01:19:32;15.50;37.40
17399;DHT22;8817;48.170;8.592;2023-03-18T01:22:00;15.50;37.40
17399;DHT22;8817;48.170;8.592;2023-03-18T01:24:27;15.50;37.30
17399;DHT22;8817;48.170;8.592;2023-03-18T01:26:54;15.50;37.30
17399;DHT22;8817;48.170;8.592;2023-03-18T01:29:22;15.50;37.40
17399;DHT22;8817;48.170;8.592;2023-03-18T01:31:49;15.50;37.40
17399;DHT22;8817;48.170;8.592;2023-03-18T01:34:18;15.50;37.40
17399;DHT22;8817;48.170;8.592;2023-03-18T01:36:46;15.40;37.30
17399;DHT22;8817;48.170;8.592;2023-03-18T01:39:13;15.40;37.30
17399;DHT22;8817;48.170;8.592;2023-03-18T01:41:40;15.40;37.30
17399;DHT22;8817;48.170;8.592;2023-03-18T01:44:12;15.40;37.30
17399;DHT22;8817;48.170;8.592;2023-03-18T01:46:40;15.40;37.40
17399;DHT22;8817;48.170;8.592;2023-03-18T01:49:11;15.40;37.40
17399;DHT22;8817;48.170;8.592;2023-03-18T01:51:44;15.40;37.40
17399;DHT22;8817;48.170;8.592;2023-03-18T01:54:13;15.40;37.30
17399;DHT22;8817;48.170;8.592;2023-03-18T01:56:42;15.40;37.30
17399;DHT22;8817;48.170;8.592;2023-03-18T01:59:10;15.40;37.30
17399;DHT22;8817;48.170;8.592;2023-03-18T02:01:46;15.40;37.30
17399;DHT22;8817;48.170;8.592;2023-03-18T02:04:13;15.40;37.40
17399;DHT22;8817;48.170;8.592;2023-03-18T02:06:42;15.40;37.40
17399;DHT22;8817;48.170;8.592;2023-03-18T02:09:10;15.40;37.40
17399;DHT22;8817;48.170;8.592;2023-03-18T02:11:40;15.40;37.30
17399;DHT22;8817;48.170;8.592;2023-03-18T02:14:10;15.30;37.30
17399;DHT22;8817;48.170;8.592;2023-03-18T02:16:42;15.30;37.30
17399;DHT22;8817;48.170;8.592;2023-03-18T02:19:14;15.30;37.30
17399;DHT22;8817;48.170;8.592;2023-03-18T02:21:52;15.30;37.40
17399;DHT22;8817;48.170;8.592;2023-03-18T02:24:30;15.20;37.30
17399;DHT22;8817;48.170;8.592;2023-03-18T02:27:00;15.20;37.30
17399;DHT22;8817;48.170;8.592;2023-03-18T02:29:30;15.10;37.30
17399;DHT22;8817;48.170;8.592;2023-03-18T02:32:00;15.10;37.30
17399;DHT22;8817;48.170;8.592;2023-03-18T02:34:29;15.10;37.30
17399;DHT22;8817;48.170;8.592;2023-03-18T02:36:57;15.00;37.30
17399;DHT22;8817;48.170;8.592;2023-03-18T02:39:24;15.00;37.30
17399;DHT22;8817;48.170;8.592;2023-03-18T02:41:52;15.00;37.30
17399;DHT22;8817;48.170;8.592;2023-03-18T02:44:19;14.90;37.30
17399;DHT22;8817;48.170;8.592;2023-03-18T02:46:52;14.90;37.40
17399;DHT22;8817;48.170;8.592;2023-03-18T02:49:20;14.80;37.30
17399;DHT22;8817;48.170;8.592;2023-03-18T02:51:48;14.80;37.40
17399;DHT22;8817;48.170;8.592;2023-03-18T02:54:17;14.80;37.40
17399;DHT22;8817;48.170;8.592;2023-03-18T02:56:44;14.80;37.40
17399;DHT22;8817;48.170;8.592;2023-03-18T02:59:12;14.80;37.40
17399;DHT22;8817;48.170;8.592;2023-03-18T03:01:40;14.70;37.40
17399;DHT22;8817;48.170;8.592;2023-03-18T03:04:09;14.60;37.30
17399;DHT22;8817;48.170;8.592;2023-03-18T03:06:38;14.60;37.40
17399;DHT22;8817;48.170;8.592;2023-03-18T03:09:07;14.60;37.40
17399;DHT22;8817;48.170;8.592;2023-03-18T03:11:35;14.50;37.40
17399;DHT22;8817;48.170;8.592;2023-03-18T03:14:02;14.50;37.50
17399;DHT22;8817;48.170;8.592;2023-03-18T03:16:29;14.50;37.50
17399;DHT22;8817;48.170;8.592;2023-03-18T03:18:56;14.50;37.60
17399;DHT22;8817;48.170;8.592;2023-03-18T03:21:24;14.50;37.60
17399;DHT22;8817;48.170;8.592;2023-03-18T03:23:52;14.50;37.60
17399;DHT22;8817;48.170;8.592;2023-03-18T03:26:19;14.50;37.60
17399;DHT22;8817;48.170;8.592;2023-03-18T03:28:47;14.50;37.70
17399;DHT22;8817;48.170;8.592;2023-03-18T03:31:14;14.50;37.70
17399;DHT22;8817;48.170;8.592;2023-03-18T03:33:41;14.50;37.70
17399;DHT22;8817;48.170;8.592;2023-03-18T03:36:10;14.40;37.60
17399;DHT22;8817;48.170;8.592;2023-03-18T03:38:39;14.40;37.60
17399;DHT22;8817;48.170;8.592;2023-03-18T03:41:07;14.40;37.60
17399;DHT22;8817;48.170;8.592;2023-03-18T03:43:35;14.40;37.60
17399;DHT22;8817;48.170;8.592;2023-03-18T03:46:02;14.40;37.90
17399;DHT22;8817;48.170;8.592;2023-03-18T03:48:30;14.40;37.60
17399;DHT22;8817;48.170;8.592;2023-03-18T03:50:57;14.40;37.60
17399;DHT22;8817;48.170;8.592;2023-03-18T03:53:24;14.40;37.60
17399;DHT22;8817;48.170;8.592;2023-03-18T03:55:53;14.40;37.70
17399;DHT22;8817;48.170;8.592;2023-03-18T03:58:21;14.30;37.70
17399;DHT22;8817;48.170;8.592;2023-03-18T04:00:48;14.40;37.70
17399;DHT22;8817;48.170;8.592;2023-03-18T04:03:15;14.40;37.70
17399;DHT22;8817;48.170;8.592;2023-03-18T04:05:42;14.40;37.70
17399;DHT22;8817;48.170;8.592;2023-03-18T04:08:09;14.30;37.60
17399;DHT22;8817;48.170;8.592;2023-03-18T04:10:36;14.40;37.70
17399;DHT22;8817;48.170;8.592;2023-03-18T04:13:05;14.30;37.70
17399;DHT22;8817;48.170;8.592;2023-03-18T04:15:33;14.30;37.70
17399;DHT22;8817;48.170;8.592;2023-03-18T04:18:00;14.30;38.20
17399;DHT22;8817;48.170;8.592;2023-03-18T04:20:32;14.30;37.60
17399;DHT22;8817;48.170;8.592;2023-03-18T04:22:59;14.30;37.60
17399;DHT22;8817;48.170;8.592;2023-03-18T04:25:27;14.20;37.60
17399;DHT22;8817;48.170;8.592;2023-03-18T04:27:54;14.20;37.60
17399;DHT22;8817;48.170;8.592;2023-03-18T04:30:23;14.10;37.50
17399;DHT22;8817;48.170;8.592;2023-03-18T04:32:51;14.10;37.60
17399;DHT22;8817;48.170;8.592;2023-03-18T04:35:19;14.00;37.60
17399;DHT22;8817;48.170;8.592;2023-03-18T04:37:48;14.00;37.60
17399;DHT22;8817;48.170;8.592;2023-03-18T04:40:15;14.00;37.70
17399;DHT22;8817;48.170;8.592;2023-03-18T04:42:42;14.00;37.70
17399;DHT22;8817;48.170;8.592;2023-03-18T04:45:10;13.90;37.70
17399;DHT22;8817;48.170;8.592;2023-03-18T04:47:40;13.90;37.70
17399;DHT22;8817;48.170;8.592;2023-03-18T04:50:08;13.90;37.70
17399;DHT22;8817;48.170;8.592;2023-03-18T04:52:36;13.90;37.70
17399;DHT22;8817;48.170;8.592;2023-03-18T04:55:04;13.90;37.70
17399;DHT22;8817;48.170;8.592;2023-03-18T04:57:31;13.80;37.70
17399;DHT22;8817;48.170;8.592;2023-03-18T05:00:00;13.80;37.70
17399;DHT22;8817;48.170;8.592;2023-03-18T05:02:28;13.80;37.70
17399;DHT22;8817;48.170;8.592;2023-03-18T05:04:56;13.80;37.70
17399;DHT22;8817;48.170;8.592;2023-03-18T05:07:23;13.80;37.70
17399;DHT22;8817;48.170;8.592;2023-03-18T05:09:50;13.70;37.70
17399;DHT22;8817;48.170;8.592;2023-03-18T05:12:17;13.70;37.70
17399;DHT22;8817;48.170;8.592;2023-03-18T05:14:44;13.70;37.70
17399;DHT22;8817;48.170;8.592;2023-03-18T05:17:12;13.70;37.70
17399;DHT22;8817;48.170;8.592;2023-03-18T05:19:41;13.70;37.70
17399;DHT22;8817;48.170;8.592;2023-03-18T05:22:10;13.60;37.70
17399;DHT22;8817;48.170;8.592;2023-03-18T05:24:38;13.50;37.60
17399;DHT22;8817;48.170;8.592;2023-03-18T05:27:06;13.50;37.70
17399;DHT22;8817;48.170;8.592;2023-03-18T05:29:33;13.50;37.70
17399;DHT22;8817;48.170;8.592;2023-03-18T05:31:59;13.50;37.70
17399;DHT22;8817;48.170;8.592;2023-03-18T05:34:27;13.40;37.70
17399;DHT22;8817;48.170;8.592;2023-03-18T05:36:54;13.40;37.70
17399;DHT22;8817;48.170;8.592;2023-03-18T05:39:23;13.30;37.70
17399;DHT22;8817;48.170;8.592;2023-03-18T05:41:50;13.30;37.70
17399;DHT22;8817;48.170;8.592;2023-03-18T05:44:17;13.30;37.70
17399;DHT22;8817;48.170;8.592;2023-03-18T05:46:44;13.20;37.70
17399;DHT22;8817;48.170;8.592;2023-03-18T05:49:12;13.20;37.70
17399;DHT22;8817;48.170;8.592;2023-03-18T05:51:38;13.20;37.70
17399;DHT22;8817;48.170;8.592;2023-03-18T05:54:05;13.10;37.60
17399;DHT22;8817;48.170;8.592;2023-03-18T05:56:35;13.10;37.60
17399;DHT22;8817;48.170;8.592;2023-03-18T05:59:02;13.10;37.70
17399;DHT22;8817;48.170;8.592;2023-03-18T06:01:30;13.00;37.70
17399;DHT22;8817;48.170;8.592;2023-03-18T06:03:58;13.00;37.70
17399;DHT22;8817;48.170;8.592;2023-03-18T06:06:25;12.90;37.70
17399;DHT22;8817;48.170;8.592;2023-03-18T06:08:52;12.90;37.70
17399;DHT22;8817;48.170;8.592;2023-03-18T06:11:21;12.90;37.80
17399;DHT22;8817;48.170;8.592;2023-03-18T06:13:49;12.80;37.80
17399;DHT22;8817;48.170;8.592;2023-03-18T06:16:16;12.80;37.80
17399;DHT22;8817;48.170;8.592;2023-03-18T06:18:43;12.80;37.90
17399;DHT22;8817;48.170;8.592;2023-03-18T06:21:10;12.80;37.90
17399;DHT22;8817;48.170;8.592;2023-03-18T06:23:37;12.80;38.00
17399;DHT22;8817;48.170;8.592;2023-03-18T06:26:05;12.70;38.00
17399;DHT22;8817;48.170;8.592;2023-03-18T06:28:33;12.80;38.10
17399;DHT22;8817;48.170;8.592;2023-03-18T06:31:01;12.80;38.20
17399;DHT22;8817;48.170;8.592;2023-03-18T06:33:28;12.80;38.20
17399;DHT22;8817;48.170;8.592;2023-03-18T06:35:55;12.80;38.20
17399;DHT22;8817;48.170;8.592;2023-03-18T06:38:24;12.80;38.30
17399;DHT22;8817;48.170;8.592;2023-03-18T06:40:52;12.90;38.30
17399;DHT22;8817;48.170;8.592;2023-03-18T06:43:19;12.90;38.40
17399;DHT22;8817;48.170;8.592;2023-03-18T06:45:47;13.00;38.50
17399;DHT22;8817;48.170;8.592;2023-03-18T06:48:15;13.00;38.50
17399;DHT22;8817;48.170;8.592;2023-03-18T06:50:43;13.10;38.60
17399;DHT22;8817;48.170;8.592;2023-03-18T06:53:10;13.20;38.70
17399;DHT22;8817;48.170;8.592;2023-03-18T06:55:38;13.20;38.70
17399;DHT22;8817;48.170;8.592;2023-03-18T06:58:06;13.30;38.80
17399;DHT22;8817;48.170;8.592;2023-03-18T07:00:33;13.40;38.90
17399;DHT22;8817;48.170;8.592;2023-03-18T07:03:00;13.50;39.00
17399;DHT22;8817;48.170;8.592;2023-03-18T07:05:29;13.60;39.10
17399;DHT22;8817;48.170;8.592;2023-03-18T07:07:57;13.70;39.10
17399;DHT22;8817;48.170;8.592;2023-03-18T07:10:25;13.80;39.20
17399;DHT22;8817;48.170;8.592;2023-03-18T07:12:54;13.90;39.20
17399;DHT22;8817;48.170;8.592;2023-03-18T07:15:22;14.00;39.20
17399;DHT22;8817;48.170;8.592;2023-03-18T07:17:51;14.10;39.30
17399;DHT22;8817;48.170;8.592;2023-03-18T07:20:19;14.20;39.30
17399;DHT22;8817;48.170;8.592;2023-03-18T07:22:48;14.40;39.40
17399;DHT22;8817;48.170;8.592;2023-03-18T07:25:16;14.40;39.40
17399;DHT22;8817;48.170;8.592;2023-03-18T07:27:43;14.50;39.40
17399;DHT22;8817;48.170;8.592;2023-03-18T07:30:12;14.70;39.50
17399;DHT22;8817;48.170;8.592;2023-03-18T07:32:39;14.70;39.60
17399;DHT22;8817;48.170;8.592;2023-03-18T07:35:07;14.90;39.70
17399;DHT22;8817;48.170;8.592;2023-03-18T07:37:38;15.00;39.60
17399;DHT22;8817;48.170;8.592;2023-03-18T07:40:09;15.10;39.70
17399;DHT22;8817;48.170;8.592;2023-03-18T07:42:36;15.20;39.70
17399;DHT22;8817;48.170;8.592;2023-03-18T07:45:04;15.20;39.60
17399;DHT22;8817;48.170;8.592;2023-03-18T07:47:31;15.30;39.70
17399;DHT22;8817;48.170;8.592;2023-03-18T07:49:57;15.40;39.70
17399;DHT22;8817;48.170;8.592;2023-03-18T07:52:24;15.50;39.70
17399;DHT22;8817;48.170;8.592;2023-03-18T07:54:51;15.60;39.70
17399;DHT22;8817;48.170;8.592;2023-03-18T07:57:20;15.80;39.80
17399;DHT22;8817;48.170;8.592;2023-03-18T07:59:47;15.90;39.80
17399;DHT22;8817;48.170;8.592;2023-03-18T08:02:14;15.90;39.80
17399;DHT22;8817;48.170;8.592;2023-03-18T08:04:41;16.10;39.90
17399;DHT22;8817;48.170;8.592;2023-03-18T08:07:11;16.20;39.80
17399;DHT22;8817;48.170;8.592;2023-03-18T08:09:38;16.30;39.80
17399;DHT22;8817;48.170;8.592;2023-03-18T08:12:05;16.40;39.70
17399;DHT22;8817;48.170;8.592;2023-03-18T08:14:34;16.50;39.70
17399;DHT22;8817;48.170;8.592;2023-03-18T08:17:01;16.70;39.60
17399;DHT22;8817;48.170;8.592;2023-03-18T08:19:29;16.70;39.40
17399;DHT22;8817;48.170;8.592;2023-03-18T08:21:56;16.80;39.30
17399;DHT22;8817;48.170;8.592;2023-03-18T08:24:23;16.90;39.30
17399;DHT22;8817;48.170;8.592;2023-03-18T08:26:50;16.90;39.20
17399;DHT22;8817;48.170;8.592;2023-03-18T08:29:17;17.00;39.80
17399;DHT22;8817;48.170;8.592;2023-03-18T08:31:45;17.10;39.10
17399;DHT22;8817;48.170;8.592;2023-03-18T08:34:12;17.10;39.00
17399;DHT22;8817;48.170;8.592;2023-03-18T08:36:40;17.20;38.90
17399;DHT22;8817;48.170;8.592;2023-03-18T08:39:07;17.20;38.80
17399;DHT22;8817;48.170;8.592;2023-03-18T08:41:35;17.20;38.80
17399;DHT22;8817;48.170;8.592;2023-03-18T08:44:03;17.30;38.90
17399;DHT22;8817;48.170;8.592;2023-03-18T08:46:32;17.30;38.80
17399;DHT22;8817;48.170;8.592;2023-03-18T08:49:00;17.40;38.80
17399;DHT22;8817;48.170;8.592;2023-03-18T08:51:27;17.50;38.90
17399;DHT22;8817;48.170;8.592;2023-03-18T08:53:55;17.50;38.90
17399;DHT22;8817;48.170;8.592;2023-03-18T08:56:21;17.60;38.90
17399;DHT22;8817;48.170;8.592;2023-03-18T08:58:48;17.70;38.90
17399;DHT22;8817;48.170;8.592;2023-03-18T09:01:16;17.80;38.90
17399;DHT22;8817;48.170;8.592;2023-03-18T09:03:44;17.80;38.70
17399;DHT22;8817;48.170;8.592;2023-03-18T09:06:13;17.90;38.60
17399;DHT22;8817;48.170;8.592;2023-03-18T09:08:40;17.90;38.50
17399;DHT22;8817;48.170;8.592;2023-03-18T09:11:07;18.00;38.60
17399;DHT22;8817;48.170;8.592;2023-03-18T09:13:34;18.10;38.60
17399;DHT22;8817;48.170;8.592;2023-03-18T09:16:03;18.10;38.50
17399;DHT22;8817;48.170;8.592;2023-03-18T09:18:30;18.20;38.40
17399;DHT22;8817;48.170;8.592;2023-03-18T09:20:59;18.20;38.20
17399;DHT22;8817;48.170;8.592;2023-03-18T09:23:29;18.30;38.30
17399;DHT22;8817;48.170;8.592;2023-03-18T09:25:56;18.30;38.30
17399;DHT22;8817;48.170;8.592;2023-03-18T09:28:24;18.40;38.30
17399;DHT22;8817;48.170;8.592;2023-03-18T09:30:52;18.40;38.20
17399;DHT22;8817;48.170;8.592;2023-03-18T09:33:20;18.40;38.20
17399;DHT22;8817;48.170;8.592;2023-03-18T09:35:47;18.50;38.20
17399;DHT22;8817;48.170;8.592;2023-03-18T09:38:16;18.60;38.20
17399;DHT22;8817;48.170;8.592;2023-03-18T09:40:53;18.70;38.30
17399;DHT22;8817;48.170;8.592;2023-03-18T09:43:31;18.70;38.20
17399;DHT22;8817;48.170;8.592;2023-03-18T09:46:08;18.80;38.00
17399;DHT22;8817;48.170;8.592;2023-03-18T09:48:55;18.90;38.00
17399;DHT22;8817;48.170;8.592;2023-03-18T09:51:35;18.90;37.90
17399;DHT22;8817;48.170;8.592;2023-03-18T09:54:08;18.90;37.80
17399;DHT22;8817;48.170;8.592;2023-03-18T09:56:38;19.00;37.90
17399;DHT22;8817;48.170;8.592;2023-03-18T09:59:15;19.00;37.90
17399;DHT22;8817;48.170;8.592;2023-03-18T10:01:46;19.00;37.90
17399;DHT22;8817;48.170;8.592;2023-03-18T10:04:18;19.10;37.90
17399;DHT22;8817;48.170;8.592;2023-03-18T10:06:49;19.20;37.80
17399;DHT22;8817;48.170;8.592;2023-03-18T10:09:22;19.20;37.70
17399;DHT22;8817;48.170;8.592;2023-03-18T10:11:57;19.20;37.60
17399;DHT22;8817;48.170;8.592;2023-03-18T10:14:34;19.20;37.60
17399;DHT22;8817;48.170;8.592;2023-03-18T10:17:11;19.20;37.60
17399;DHT22;8817;48.170;8.592;2023-03-18T10:19:44;19.30;37.70
17399;DHT22;8817;48.170;8.592;2023-03-18T10:22:21;19.40;37.80
17399;DHT22;8817;48.170;8.592;2023-03-18T10:24:55;19.40;37.80
17399;DHT22;8817;48.170;8.592;2023-03-18T10:27:36;19.50;37.80
17399;DHT22;8817;48.170;8.592;2023-03-18T10:30:20;19.50;37.80
17399;DHT22;8817;48.170;8.592;2023-03-18T10:33:00;19.60;37.80
17399;DHT22;8817;48.170;8.592;2023-03-18T10:35:33;19.70;37.80
17399;DHT22;8817;48.170;8.592;2023-03-18T10:38:03;19.80;37.90
17399;DHT22;8817;48.170;8.592;2023-03-18T10:40:37;19.90;37.90
17399;DHT22;8817;48.170;8.592;2023-03-18T10:43:14;19.90;37.80
17399;DHT22;8817;48.170;8.592;2023-03-18T10:45:44;20.00;37.80
17399;DHT22;8817;48.170;8.592;2023-03-18T10:48:16;20.20;37.90
17399;DHT22;8817;48.170;8.592;2023-03-18T10:50:49;20.20;37.80
17399;DHT22;8817;48.170;8.592;2023-03-18T10:53:21;20.30;37.80
17399;DHT22;8817;48.170;8.592;2023-03-18T10:55:56;20.40;37.80
17399;DHT22;8817;48.170;8.592;2023-03-18T10:58:27;20.50;37.70
17399;DHT22;8817;48.170;8.592;2023-03-18T11:00:54;20.50;37.60
17399;DHT22;8817;48.170;8.592;2023-03-18T11:03:26;20.60;37.60
17399;DHT22;8817;48.170;8.592;2023-03-18T11:05:54;20.70;37.60
17399;DHT22;8817;48.170;8.592;2023-03-18T11:08:32;20.80;37.60
17399;DHT22;8817;48.170;8.592;2023-03-18T11:11:09;20.90;37.50
17399;DHT22;8817;48.170;8.592;2023-03-18T11:13:46;21.00;37.40
17399;DHT22;8817;48.170;8.592;2023-03-18T11:16:25;21.00;37.40
17399;DHT22;8817;48.170;8.592;2023-03-18T11:18:54;21.10;37.40
17399;DHT22;8817;48.170;8.592;2023-03-18T11:21:22;21.20;37.30
17399;DHT22;8817;48.170;8.592;2023-03-18T11:23:54;21.30;37.30
17399;DHT22;8817;48.170;8.592;2023-03-18T11:26:45;21.30;37.20
17399;DHT22;8817;48.170;8.592;2023-03-18T11:29:16;21.30;37.10
17399;DHT22;8817;48.170;8.592;2023-03-18T11:31:47;21.40;37.10
17399;DHT22;8817;48.170;8.592;2023-03-18T11:34:16;21.50;37.20
17399;DHT22;8817;48.170;8.592;2023-03-18T11:36:51;21.50;37.20
17399;DHT22;8817;48.170;8.592;2023-03-18T11:39:21;21.60;37.10
17399;DHT22;8817;48.170;8.592;2023-03-18T11:41:50;21.60;37.10
17399;DHT22;8817;48.170;8.592;2023-03-18T11:44:24;21.70;37.10
17399;DHT22;8817;48.170;8.592;2023-03-18T11:46:57;21.80;37.10
17399;DHT22;8817;48.170;8.592;2023-03-18T11:49:27;21.80;37.00
17399;DHT22;8817;48.170;8.592;2023-03-18T11:52:03;21.90;36.90
17399;DHT22;8817;48.170;8.592;2023-03-18T11:57:59;22.00;36.80
17399;DHT22;8817;48.170;8.592;2023-03-18T12:00:34;22.10;36.80
17399;DHT22;8817;48.170;8.592;2023-03-18T12:03:26;22.20;36.70
17399;DHT22;8817;48.170;8.592;2023-03-18T12:06:06;22.20;36.60
17399;DHT22;8817;48.170;8.592;2023-03-18T12:08:48;22.20;36.60
17399;DHT22;8817;48.170;8.592;2023-03-18T12:11:20;22.20;36.50
17399;DHT22;8817;48.170;8.592;2023-03-18T12:13:59;22.30;36.60
17399;DHT22;8817;48.170;8.592;2023-03-18T12:16:40;22.30;36.40
17399;DHT22;8817;48.170;8.592;2023-03-18T12:19:29;22.40;36.40
17399;DHT22;8817;48.170;8.592;2023-03-18T12:22:20;22.40;36.50
17399;DHT22;8817;48.170;8.592;2023-03-18T12:27:47;22.50;36.50
17399;DHT22;8817;48.170;8.592;2023-03-18T12:30:46;22.70;36.60
17399;DHT22;8817;48.170;8.592;2023-03-18T12:33:27;22.70;36.60
17399;DHT22;8817;48.170;8.592;2023-03-18T12:36:06;22.80;36.40
17399;DHT22;8817;48.170;8.592;2023-03-18T12:39:02;22.90;36.30
17399;DHT22;8817;48.170;8.592;2023-03-18T12:41:40;22.90;36.20
17399;DHT22;8817;48.170;8.592;2023-03-18T12:44:23;22.90;35.90
17399;DHT22;8817;48.170;8.592;2023-03-18T12:46:58;22.90;35.80
17399;DHT22;8817;48.170;8.592;2023-03-18T12:49:31;22.90;35.80
17399;DHT22;8817;48.170;8.592;2023-03-18T12:52:03;22.90;36.50
17399;DHT22;8817;48.170;8.592;2023-03-18T12:54:37;22.90;35.90
17399;DHT22;8817;48.170;8.592;2023-03-18T12:57:11;23.00;36.00
17399;DHT22;8817;48.170;8.592;2023-03-18T12:59:43;23.10;36.10
17399;DHT22;8817;48.170;8.592;2023-03-18T13:02:36;23.10;36.00
17399;DHT22;8817;48.170;8.592;2023-03-18T13:05:16;23.20;36.20
17399;DHT22;8817;48.170;8.592;2023-03-18T13:07:48;23.30;36.20
17399;DHT22;8817;48.170;8.592;2023-03-18T13:10:21;23.40;36.10
17399;DHT22;8817;48.170;8.592;2023-03-18T13:12:50;23.50;36.10
17399;DHT22;8817;48.170;8.592;2023-03-18T13:15:27;23.60;36.00
17399;DHT22;8817;48.170;8.592;2023-03-18T13:18:00;23.70;35.90
17399;DHT22;8817;48.170;8.592;2023-03-18T13:20:34;23.70;35.80
17399;DHT22;8817;48.170;8.592;2023-03-18T13:23:13;23.90;35.80
17399;DHT22;8817;48.170;8.592;2023-03-18T13:25:49;23.90;35.80
17399;DHT22;8817;48.170;8.592;2023-03-18T13:28:30;23.90;35.70
17399;DHT22;8817;48.170;8.592;2023-03-18T13:31:08;24.00;35.60
17399;DHT22;8817;48.170;8.592;2023-03-18T13:33:59;24.00;35.30
17399;DHT22;8817;48.170;8.592;2023-03-18T13:36:54;24.00;35.20
17399;DHT22;8817;48.170;8.592;2023-03-18T13:39:43;24.00;35.20
17399;DHT22;8817;48.170;8.592;2023-03-18T13:42:21;23.90;35.00
17399;DHT22;8817;48.170;8.592;2023-03-18T13:44:58;23.90;35.00
17399;DHT22;8817;48.170;8.592;2023-03-18T13:47:29;23.90;35.00
17399;DHT22;8817;48.170;8.592;2023-03-18T13:50:01;23.90;34.90
17399;DHT22;8817;48.170;8.592;2023-03-18T13:52:35;23.80;34.80
17399;DHT22;8817;48.170;8.592;2023-03-18T13:55:18;23.70;34.70
17399;DHT22;8817;48.170;8.592;2023-03-18T13:57:47;23.70;34.70
17399;DHT22;8817;48.170;8.592;2023-03-18T14:00:29;23.60;34.60
17399;DHT22;8817;48.170;8.592;2023-03-18T14:03:12;23.50;34.40
17399;DHT22;8817;48.170;8.592;2023-03-18T14:05:40;23.30;34.30
17399;DHT22;8817;48.170;8.592;2023-03-18T14:08:47;23.30;34.40
17399;DHT22;8817;48.170;8.592;2023-03-18T14:11:45;23.20;34.50
17399;DHT22;8817;48.170;8.592;2023-03-18T14:14:40;23.10;34.60
17399;DHT22;8817;48.170;8.592;2023-03-18T14:17:21;23.00;34.60
17399;DHT22;8817;48.170;8.592;2023-03-18T14:19:53;22.90;34.60
17399;DHT22;8817;48.170;8.592;2023-03-18T14:22:22;22.90;34.10
17399;DHT22;8817;48.170;8.592;2023-03-18T14:25:25;22.90;34.60
17399;DHT22;8817;48.170;8.592;2023-03-18T14:27:54;22.70;33.90
17399;DHT22;8817;48.170;8.592;2023-03-18T14:30:41;22.60;34.10
17399;DHT22;8817;48.170;8.592;2023-03-18T14:33:30;22.60;34.50
17399;DHT22;8817;48.170;8.592;2023-03-18T14:36:02;22.60;34.50
17399;DHT22;8817;48.170;8.592;2023-03-18T14:38:33;22.70;34.50
17399;DHT22;8817;48.170;8.592;2023-03-18T14:41:11;22.60;34.40
17399;DHT22;8817;48.170;8.592;2023-03-18T14:43:44;22.60;34.50
17399;DHT22;8817;48.170;8.592;2023-03-18T14:46:16;22.70;34.60
17399;DHT22;8817;48.170;8.592;2023-03-18T14:48:44;22.70;34.70
17399;DHT22;8817;48.170;8.592;2023-03-18T14:51:14;22.80;34.70
17399;DHT22;8817;48.170;8.592;2023-03-18T14:53:45;22.80;34.70
17399;DHT22;8817;48.170;8.592;2023-03-18T14:56:20;22.90;34.70
17399;DHT22;8817;48.170;8.592;2023-03-18T14:58:50;22.90;34.70
17399;DHT22;8817;48.170;8.592;2023-03-18T15:01:21;23.00;35.20
17399;DHT22;8817;48.170;8.592;2023-03-18T15:03:51;23.00;34.50
17399;DHT22;8817;48.170;8.592;2023-03-18T15:06:20;23.00;34.40
17399;DHT22;8817;48.170;8.592;2023-03-18T15:08:50;23.00;34.30
17399;DHT22;8817;48.170;8.592;2023-03-18T15:11:19;23.00;34.20
17399;DHT22;8817;48.170;8.592;2023-03-18T15:13:48;23.00;34.10
17399;DHT22;8817;48.170;8.592;2023-03-18T15:16:17;22.90;34.10
17399;DHT22;8817;48.170;8.592;2023-03-18T15:18:45;22.90;34.10
17399;DHT22;8817;48.170;8.592;2023-03-18T15:21:20;22.80;34.00
17399;DHT22;8817;48.170;8.592;2023-03-18T15:23:50;22.80;34.70
17399;DHT22;8817;48.170;8.592;2023-03-18T15:26:20;22.80;34.20
17399;DHT22;8817;48.170;8.592;2023-03-18T15:28:53;22.80;34.20
17399;DHT22;8817;48.170;8.592;2023-03-18T15:31:24;22.80;34.30
17399;DHT22;8817;48.170;8.592;2023-03-18T15:34:03;22.80;34.30
17399;DHT22;8817;48.170;8.592;2023-03-18T15:36:39;22.80;34.20
17399;DHT22;8817;48.170;8.592;2023-03-18T15:39:30;22.80;34.20
17399;DHT22;8817;48.170;8.592;2023-03-18T15:42:00;22.80;34.10
17399;DHT22;8817;48.170;8.592;2023-03-18T15:44:30;22.80;33.90
17399;DHT22;8817;48.170;8.592;2023-03-18T15:47:11;22.80;33.90
17399;DHT22;8817;48.170;8.592;2023-03-18T15:49:48;22.70;33.90
17399;DHT22;8817;48.170;8.592;2023-03-18T15:52:16;22.60;33.80
17399;DHT22;8817;48.170;8.592;2023-03-18T15:54:47;22.60;33.90
17399;DHT22;8817;48.170;8.592;2023-03-18T15:57:25;22.50;33.80
17399;DHT22;8817;48.170;8.592;2023-03-18T15:59:53;22.40;33.90
17399;DHT22;8817;48.170;8.592;2023-03-18T16:02:20;22.50;33.90
17399;DHT22;8817;48.170;8.592;2023-03-18T16:04:48;22.40;33.90
17399;DHT22;8817;48.170;8.592;2023-03-18T16:07:16;22.30;33.80
17399;DHT22;8817;48.170;8.592;2023-03-18T16:09:46;22.30;33.80
17399;DHT22;8817;48.170;8.592;2023-03-18T16:12:17;22.20;33.80
17399;DHT22;8817;48.170;8.592;2023-03-18T16:14:48;22.20;33.80